sensor_id;sensor_type;location;lat;lon;timestamp;pressure;altitude;pressure_sealevel;temperature;humidity
46456;BME280;64052;47.466;9.094;2023-02-23T00:00:11;95425.78;;;11.33;62.46
46456;BME280;64052;47.466;9.094;2023-02-23T00:05:12;95431.84;;;11.16;62.94
46456;BME280;64052;47.466;9.094;2023-02-23T00:10:14;95427.63;;;11.23;62.72
46456;BME280;64052;47.466;9.094;2023-02-23T00:15:15;95424.72;;;11.26;62.43
46456;BME280;64052;47.466;9.094;2023-02-23T00:20:17;95427.13;;;11.19;63.55
46456;BME280;64052;47.466;9.094;2023-02-23T00:25:19;95426.22;;;11.29;62.97
46456;BME280;64052;47.466;9.094;2023-02-23T00:30:21;95430.56;;;11.20;63.19
46456;BME280;64052;47.466;9.094;2023-02-23T00:35:22;95428.78;;;11.20;63.74
46456;BME280;64052;47.466;9.094;2023-02-23T00:40:24;95430.00;;;11.26;64.21
46456;BME280;64052;47.466;9.094;2023-02-23T00:45:25;95426.16;;;11.20;64.34
46456;BME280;64052;47.466;9.094;2023-02-23T00:50:27;95429.75;;;11.19;64.93
46456;BME280;64052;47.466;9.094;2023-02-23T00:55:28;95434.50;;;11.16;65.35
46456;BME280;64052;47.466;9.094;2023-02-23T01:00:30;95426.63;;;10.96;66.16
46456;BME280;64052;47.466;9.094;2023-02-23T01:05:33;95421.22;;;10.98;66.81
46456;BME280;64052;47.466;9.094;2023-02-23T01:10:39;95427.44;;;11.06;66.36
46456;BME280;64052;47.466;9.094;2023-02-23T01:15:42;95425.03;;;11.13;66.16
46456;BME280;64052;47.466;9.094;2023-02-23T01:20:44;95425.91;;;11.04;66.63
46456;BME280;64052;47.466;9.094;2023-02-23T01:25:45;95432.84;;;11.15;67.09
46456;BME280;64052;47.466;9.094;2023-02-23T01:30:47;95427.44;;;11.34;66.10
46456;BME280;64052;47.466;9.094;2023-02-23T01:35:59;95423.75;;;11.27;66.64
46456;BME280;64052;47.466;9.094;2023-02-23T01:41:00;95415.66;;;11.01;67.99
46456;BME280;64052;47.466;9.094;2023-02-23T01:46:03;95414.84;;;11.00;68.71
46456;BME280;64052;47.466;9.094;2023-02-23T01:56:13;95412.06;;;10.92;67.47
46456;BME280;64052;47.466;9.094;2023-02-23T02:01:18;95405.59;;;10.76;68.83
46456;BME280;64052;47.466;9.094;2023-02-23T02:06:23;95405.19;;;10.71;70.19
46456;BME280;64052;47.466;9.094;2023-02-23T02:11:25;95401.03;;;10.78;69.14
46456;BME280;64052;47.466;9.094;2023-02-23T02:22:27;95401.09;;;10.96;69.12
46456;BME280;64052;47.466;9.094;2023-02-23T02:33:23;95400.50;;;10.65;70.25
46456;BME280;64052;47.466;9.094;2023-02-23T02:38:37;95389.06;;;10.84;70.00
46456;BME280;64052;47.466;9.094;2023-02-23T02:43:53;95387.97;;;10.87;70.25
46456;BME280;64052;47.466;9.094;2023-02-23T02:54:59;95388.56;;;10.61;70.73
46456;BME280;64052;47.466;9.094;2023-02-23T02:59:58;95393.28;;;10.67;70.53
46456;BME280;64052;47.466;9.094;2023-02-23T03:04:59;95393.56;;;10.64;71.31
46456;BME280;64052;47.466;9.094;2023-02-23T03:10:13;95378.22;;;10.87;70.00
46456;BME280;64052;47.466;9.094;2023-02-23T03:15:48;95384.91;;;10.81;69.98
46456;BME280;64052;47.466;9.094;2023-02-23T03:21:04;95373.97;;;10.76;69.95
46456;BME280;64052;47.466;9.094;2023-02-23T03:26:13;95384.22;;;10.79;69.88
46456;BME280;64052;47.466;9.094;2023-02-23T03:36:27;95389.81;;;10.57;70.85
46456;BME280;64052;47.466;9.094;2023-02-23T03:41:33;95389.97;;;10.55;71.41
46456;BME280;64052;47.466;9.094;2023-02-23T03:46:37;95389.00;;;10.56;71.06
46456;BME280;64052;47.466;9.094;2023-02-23T03:51:41;95388.00;;;10.67;71.26
46456;BME280;64052;47.466;9.094;2023-02-23T03:56:49;95390.38;;;10.60;71.78
46456;BME280;64052;47.466;9.094;2023-02-23T04:01:53;95395.75;;;10.78;71.06
46456;BME280;64052;47.466;9.094;2023-02-23T04:06:58;95392.88;;;10.62;71.62
46456;BME280;64052;47.466;9.094;2023-02-23T04:12:49;95396.31;;;10.72;71.25
46456;BME280;64052;47.466;9.094;2023-02-23T04:17:30;95399.66;;;10.74;70.90
46456;BME280;64052;47.466;9.094;2023-02-23T04:22:32;95394.41;;;10.54;72.40
46456;BME280;64052;47.466;9.094;2023-02-23T04:27:34;95394.25;;;10.66;71.68
46456;BME280;64052;47.466;9.094;2023-02-23T04:32:36;95390.38;;;10.60;71.43
46456;BME280;64052;47.466;9.094;2023-02-23T04:37:38;95394.13;;;10.58;71.57
46456;BME280;64052;47.466;9.094;2023-02-23T04:42:40;95386.94;;;10.50;72.07
46456;BME280;64052;47.466;9.094;2023-02-23T04:47:41;95399.97;;;10.51;72.24
46456;BME280;64052;47.466;9.094;2023-02-23T04:52:43;95396.38;;;10.52;71.72
46456;BME280;64052;47.466;9.094;2023-02-23T04:57:45;95393.31;;;10.57;72.18
46456;BME280;64052;47.466;9.094;2023-02-23T05:02:47;95396.59;;;10.69;71.41
46456;BME280;64052;47.466;9.094;2023-02-23T05:07:51;95395.78;;;10.59;71.63
46456;BME280;64052;47.466;9.094;2023-02-23T05:12:52;95382.34;;;10.62;71.76
46456;BME280;64052;47.466;9.094;2023-02-23T05:17:54;95390.94;;;10.64;71.76
46456;BME280;64052;47.466;9.094;2023-02-23T05:22:55;95391.34;;;10.49;72.33
46456;BME280;64052;47.466;9.094;2023-02-23T05:27:57;95387.63;;;10.42;72.44
46456;BME280;64052;47.466;9.094;2023-02-23T05:32:59;95383.75;;;10.46;72.45
46456;BME280;64052;47.466;9.094;2023-02-23T05:38:00;95386.09;;;10.49;72.15
46456;BME280;64052;47.466;9.094;2023-02-23T05:43:02;95380.84;;;10.30;72.28
46456;BME280;64052;47.466;9.094;2023-02-23T05:48:04;95382.63;;;10.19;71.93
46456;BME280;64052;47.466;9.094;2023-02-23T05:53:05;95380.84;;;10.30;71.65
46456;BME280;64052;47.466;9.094;2023-02-23T05:58:07;95389.88;;;10.07;72.69
46456;BME280;64052;47.466;9.094;2023-02-23T06:03:08;95394.97;;;10.09;72.93
46456;BME280;64052;47.466;9.094;2023-02-23T06:08:10;95399.97;;;10.12;72.76
46456;BME280;64052;47.466;9.094;2023-02-23T06:13:12;95396.94;;;10.07;73.43
46456;BME280;64052;47.466;9.094;2023-02-23T06:18:14;95405.53;;;10.19;73.22
46456;BME280;64052;47.466;9.094;2023-02-23T06:23:16;95401.63;;;10.23;73.02
46456;BME280;64052;47.466;9.094;2023-02-23T06:28:17;95399.16;;;10.31;72.84
46456;BME280;64052;47.466;9.094;2023-02-23T06:33:19;95398.16;;;10.32;72.99
46456;BME280;64052;47.466;9.094;2023-02-23T06:38:21;95394.69;;;10.32;71.53
46456;BME280;64052;47.466;9.094;2023-02-23T06:43:23;95409.13;;;10.27;71.67
46456;BME280;64052;47.466;9.094;2023-02-23T06:48:24;95408.56;;;10.24;71.56
46456;BME280;64052;47.466;9.094;2023-02-23T06:53:26;95414.66;;;10.24;71.72
46456;BME280;64052;47.466;9.094;2023-02-23T06:58:28;95414.41;;;10.27;72.41
46456;BME280;64052;47.466;9.094;2023-02-23T07:03:29;95422.56;;;10.54;71.34
46456;BME280;64052;47.466;9.094;2023-02-23T07:08:32;95420.34;;;10.49;71.54
46456;BME280;64052;47.466;9.094;2023-02-23T07:13:34;95421.88;;;10.52;71.20
46456;BME280;64052;47.466;9.094;2023-02-23T07:18:35;95425.47;;;10.71;71.13
46456;BME280;64052;47.466;9.094;2023-02-23T07:23:37;95425.06;;;10.36;72.21
46456;BME280;64052;47.466;9.094;2023-02-23T07:28:38;95433.53;;;10.59;71.54
46456;BME280;64052;47.466;9.094;2023-02-23T07:33:40;95432.69;;;10.59;71.73
46456;BME280;64052;47.466;9.094;2023-02-23T07:38:42;95434.34;;;10.60;71.94
46456;BME280;64052;47.466;9.094;2023-02-23T07:43:43;95441.72;;;10.36;73.00
46456;BME280;64052;47.466;9.094;2023-02-23T07:48:45;95437.41;;;10.35;72.91
46456;BME280;64052;47.466;9.094;2023-02-23T07:53:46;95439.75;;;10.38;73.24
46456;BME280;64052;47.466;9.094;2023-02-23T07:58:48;95441.03;;;10.34;73.04
46456;BME280;64052;47.466;9.094;2023-02-23T08:03:49;95443.91;;;10.61;73.14
46456;BME280;64052;47.466;9.094;2023-02-23T08:08:51;95442.91;;;10.81;72.33
46456;BME280;64052;47.466;9.094;2023-02-23T08:13:52;95441.72;;;10.66;73.36
46456;BME280;64052;47.466;9.094;2023-02-23T08:18:58;95439.34;;;10.73;73.31
46456;BME280;64052;47.466;9.094;2023-02-23T08:24:00;95441.94;;;10.82;72.92
46456;BME280;64052;47.466;9.094;2023-02-23T08:29:01;95451.78;;;11.00;73.05
46456;BME280;64052;47.466;9.094;2023-02-23T08:34:03;95442.69;;;11.13;72.34
46456;BME280;64052;47.466;9.094;2023-02-23T08:39:05;95442.34;;;11.25;71.96
46456;BME280;64052;47.466;9.094;2023-02-23T08:44:07;95441.28;;;11.18;71.74
46456;BME280;64052;47.466;9.094;2023-02-23T08:49:08;95448.25;;;11.09;72.84
46456;BME280;64052;47.466;9.094;2023-02-23T08:54:10;95449.38;;;11.07;72.56
46456;BME280;64052;47.466;9.094;2023-02-23T08:59:12;95450.03;;;11.19;72.20
46456;BME280;64052;47.466;9.094;2023-02-23T09:04:14;95450.31;;;11.16;72.40
46456;BME280;64052;47.466;9.094;2023-02-23T09:09:16;95450.69;;;11.31;71.57
46456;BME280;64052;47.466;9.094;2023-02-23T09:14:18;95445.94;;;11.34;71.98
46456;BME280;64052;47.466;9.094;2023-02-23T09:19:19;95448.94;;;11.49;71.82
46456;BME280;64052;47.466;9.094;2023-02-23T09:24:21;95458.16;;;11.35;72.02
46456;BME280;64052;47.466;9.094;2023-02-23T09:29:22;95455.50;;;11.35;71.94
46456;BME280;64052;47.466;9.094;2023-02-23T09:34:24;95456.91;;;11.39;71.70
46456;BME280;64052;47.466;9.094;2023-02-23T09:39:26;95459.25;;;11.43;72.46
46456;BME280;64052;47.466;9.094;2023-02-23T09:49:57;95456.84;;;11.95;71.67
46456;BME280;64052;47.466;9.094;2023-02-23T09:54:59;95463.19;;;12.49;69.76
46456;BME280;64052;47.466;9.094;2023-02-23T10:00:02;95462.56;;;12.73;67.12
46456;BME280;64052;47.466;9.094;2023-02-23T10:05:07;95457.31;;;12.82;64.81
46456;BME280;64052;47.466;9.094;2023-02-23T10:25:34;95436.09;;;14.21;60.36
46456;BME280;64052;47.466;9.094;2023-02-23T10:30:39;95433.09;;;14.40;59.71
46456;BME280;64052;47.466;9.094;2023-02-23T10:35:41;95435.75;;;14.48;57.60
46456;BME280;64052;47.466;9.094;2023-02-23T10:40:50;95430.78;;;14.54;57.86
46456;BME280;64052;47.466;9.094;2023-02-23T10:45:54;95436.25;;;14.69;57.31
46456;BME280;64052;47.466;9.094;2023-02-23T10:50:57;95426.47;;;14.94;56.91
46456;BME280;64052;47.466;9.094;2023-02-23T11:01:04;95411.44;;;15.74;52.69
46456;BME280;64052;47.466;9.094;2023-02-23T11:06:30;95409.31;;;16.01;51.75
46456;BME280;64052;47.466;9.094;2023-02-23T11:11:32;95400.69;;;16.23;52.11
46456;BME280;64052;47.466;9.094;2023-02-23T11:16:37;95394.13;;;17.40;50.02
46456;BME280;64052;47.466;9.094;2023-02-23T11:21:39;95394.03;;;17.86;48.10
46456;BME280;64052;47.466;9.094;2023-02-23T11:26:42;95379.50;;;17.88;45.55
46456;BME280;64052;47.466;9.094;2023-02-23T11:31:48;95369.66;;;18.76;46.30
46456;BME280;64052;47.466;9.094;2023-02-23T11:37:04;95364.56;;;20.00;41.81
46456;BME280;64052;47.466;9.094;2023-02-23T11:47:17;95350.47;;;23.70;34.83
46456;BME280;64052;47.466;9.094;2023-02-23T11:52:21;95356.00;;;25.26;31.64
46456;BME280;64052;47.466;9.094;2023-02-23T11:57:29;95348.84;;;26.77;28.46
46456;BME280;64052;47.466;9.094;2023-02-23T12:02:31;95339.28;;;27.04;27.87
46456;BME280;64052;47.466;9.094;2023-02-23T12:07:40;95330.63;;;27.24;27.27
46456;BME280;64052;47.466;9.094;2023-02-23T12:18:03;95320.25;;;28.05;25.60
46456;BME280;64052;47.466;9.094;2023-02-23T12:23:11;95317.94;;;28.46;25.60
46456;BME280;64052;47.466;9.094;2023-02-23T12:33:33;95303.84;;;28.44;24.05
46456;BME280;64052;47.466;9.094;2023-02-23T12:38:57;95302.72;;;28.73;23.09
46456;BME280;64052;47.466;9.094;2023-02-23T12:49:42;95295.56;;;28.99;24.49
46456;BME280;64052;47.466;9.094;2023-02-23T12:54:45;95289.03;;;28.95;25.90
46456;BME280;64052;47.466;9.094;2023-02-23T13:05:29;95285.25;;;24.29;31.92
46456;BME280;64052;47.466;9.094;2023-02-23T13:10:57;95285.78;;;22.14;36.05
46456;BME280;64052;47.466;9.094;2023-02-23T13:16:28;95291.66;;;20.99;37.82
46456;BME280;64052;47.466;9.094;2023-02-23T13:21:36;95278.28;;;19.91;40.18
46456;BME280;64052;47.466;9.094;2023-02-23T13:27:00;95276.09;;;21.28;39.07
46456;BME280;64052;47.466;9.094;2023-02-23T13:32:09;95274.00;;;24.44;33.34
46456;BME280;64052;47.466;9.094;2023-02-23T13:37:15;95275.66;;;25.17;31.52
46456;BME280;64052;47.466;9.094;2023-02-23T13:52:46;95271.84;;;23.68;32.67
46456;BME280;64052;47.466;9.094;2023-02-23T13:57:48;95279.22;;;22.60;34.30
46456;BME280;64052;47.466;9.094;2023-02-23T14:02:49;95277.66;;;20.97;36.67
46456;BME280;64052;47.466;9.094;2023-02-23T14:07:54;95276.91;;;20.29;38.74
46456;BME280;64052;47.466;9.094;2023-02-23T14:13:06;95271.22;;;19.63;39.90
46456;BME280;64052;47.466;9.094;2023-02-23T14:38:44;95277.38;;;18.38;43.85
46456;BME280;64052;47.466;9.094;2023-02-23T14:44:44;95274.56;;;18.18;44.28
46456;BME280;64052;47.466;9.094;2023-02-23T14:49:37;95270.38;;;18.08;44.48
46456;BME280;64052;47.466;9.094;2023-02-23T14:54:42;95278.97;;;17.89;45.14
46456;BME280;64052;47.466;9.094;2023-02-23T14:59:45;95287.81;;;17.89;45.42
46456;BME280;64052;47.466;9.094;2023-02-23T15:04:52;95281.72;;;18.17;45.43
46456;BME280;64052;47.466;9.094;2023-02-23T15:09:55;95275.47;;;18.03;44.85
46456;BME280;64052;47.466;9.094;2023-02-23T15:15:00;95278.19;;;18.38;44.62
46456;BME280;64052;47.466;9.094;2023-02-23T15:20:05;95270.69;;;18.49;44.55
46456;BME280;64052;47.466;9.094;2023-02-23T15:25:19;95273.56;;;18.47;44.00
46456;BME280;64052;47.466;9.094;2023-02-23T15:30:29;95268.03;;;18.27;44.53
46456;BME280;64052;47.466;9.094;2023-02-23T15:35:37;95268.31;;;18.32;44.84
46456;BME280;64052;47.466;9.094;2023-02-23T15:40:40;95265.09;;;17.93;45.07
46456;BME280;64052;47.466;9.094;2023-02-23T15:45:48;95267.13;;;17.69;45.93
46456;BME280;64052;47.466;9.094;2023-02-23T15:50:54;95262.03;;;17.53;46.30
46456;BME280;64052;47.466;9.094;2023-02-23T15:56:03;95264.50;;;17.18;47.46
46456;BME280;64052;47.466;9.094;2023-02-23T16:01:10;95271.03;;;17.15;47.26
46456;BME280;64052;47.466;9.094;2023-02-23T16:06:24;95272.16;;;16.91;48.12
46456;BME280;64052;47.466;9.094;2023-02-23T16:11:33;95268.75;;;16.52;48.88
46456;BME280;64052;47.466;9.094;2023-02-23T16:16:36;95261.47;;;16.30;49.20
46456;BME280;64052;47.466;9.094;2023-02-23T16:21:38;95256.84;;;16.09;49.46
46456;BME280;64052;47.466;9.094;2023-02-23T16:26:44;95257.72;;;15.78;50.20
46456;BME280;64052;47.466;9.094;2023-02-23T16:31:52;95258.28;;;15.50;50.80
46456;BME280;64052;47.466;9.094;2023-02-23T16:36:58;95257.16;;;15.44;50.88
46456;BME280;64052;47.466;9.094;2023-02-23T16:41:59;95266.13;;;15.12;51.02
46456;BME280;64052;47.466;9.094;2023-02-23T16:52:11;95265.44;;;14.70;52.78
46456;BME280;64052;47.466;9.094;2023-02-23T16:57:22;95269.81;;;14.54;53.18
46456;BME280;64052;47.466;9.094;2023-02-23T17:02:24;95273.31;;;14.38;53.63
46456;BME280;64052;47.466;9.094;2023-02-23T17:07:26;95279.81;;;14.11;54.69
46456;BME280;64052;47.466;9.094;2023-02-23T17:12:27;95277.66;;;13.81;54.79
46456;BME280;64052;47.466;9.094;2023-02-23T17:17:29;95281.28;;;13.47;54.75
46456;BME280;64052;47.466;9.094;2023-02-23T17:22:30;95283.84;;;13.22;54.64
46456;BME280;64052;47.466;9.094;2023-02-23T17:27:32;95290.94;;;13.21;55.30
46456;BME280;64052;47.466;9.094;2023-02-23T17:32:34;95288.16;;;13.31;55.04
46456;BME280;64052;47.466;9.094;2023-02-23T17:37:36;95296.38;;;12.69;56.25
46456;BME280;64052;47.466;9.094;2023-02-23T17:42:38;95292.59;;;12.18;58.62
46456;BME280;64052;47.466;9.094;2023-02-23T17:47:39;95298.66;;;11.92;59.76
46456;BME280;64052;47.466;9.094;2023-02-23T17:52:41;95312.41;;;11.78;60.07
46456;BME280;64052;47.466;9.094;2023-02-23T17:57:42;95316.19;;;11.75;61.06
46456;BME280;64052;47.466;9.094;2023-02-23T18:02:44;95316.84;;;11.95;60.23
46456;BME280;64052;47.466;9.094;2023-02-23T18:07:46;95312.09;;;11.81;60.52
46456;BME280;64052;47.466;9.094;2023-02-23T18:12:49;95317.78;;;11.68;61.58
46456;BME280;64052;47.466;9.094;2023-02-23T18:17:50;95320.78;;;11.55;61.78
46456;BME280;64052;47.466;9.094;2023-02-23T18:22:52;95331.56;;;11.44;62.06
46456;BME280;64052;47.466;9.094;2023-02-23T18:27:54;95328.34;;;11.22;63.30
46456;BME280;64052;47.466;9.094;2023-02-23T18:32:56;95330.22;;;11.12;62.49
46456;BME280;64052;47.466;9.094;2023-02-23T18:37:58;95339.63;;;10.86;62.22
46456;BME280;64052;47.466;9.094;2023-02-23T18:43:00;95339.34;;;10.51;63.41
46456;BME280;64052;47.466;9.094;2023-02-23T18:48:02;95339.19;;;10.53;64.98
46456;BME280;64052;47.466;9.094;2023-02-23T18:53:03;95338.72;;;10.77;65.06
46456;BME280;64052;47.466;9.094;2023-02-23T18:58:05;95338.28;;;10.82;63.44
46456;BME280;64052;47.466;9.094;2023-02-23T19:03:06;95335.75;;;10.33;62.99
46456;BME280;64052;47.466;9.094;2023-02-23T19:08:08;95336.75;;;10.02;62.78
46456;BME280;64052;47.466;9.094;2023-02-23T19:13:10;95331.09;;;9.87;64.74
46456;BME280;64052;47.466;9.094;2023-02-23T19:18:12;95334.00;;;10.04;67.22
46456;BME280;64052;47.466;9.094;2023-02-23T19:23:13;95334.81;;;10.14;67.29
46456;BME280;64052;47.466;9.094;2023-02-23T19:28:16;95337.56;;;10.22;66.15
46456;BME280;64052;47.466;9.094;2023-02-23T19:33:17;95342.31;;;10.19;65.70
46456;BME280;64052;47.466;9.094;2023-02-23T19:38:19;95347.84;;;10.06;63.23
46456;BME280;64052;47.466;9.094;2023-02-23T19:43:20;95356.72;;;9.85;64.68
46456;BME280;64052;47.466;9.094;2023-02-23T19:48:24;95349.41;;;9.79;65.33
46456;BME280;64052;47.466;9.094;2023-02-23T19:53:25;95354.38;;;10.11;65.84
46456;BME280;64052;47.466;9.094;2023-02-23T19:58:27;95350.44;;;10.35;64.33
46456;BME280;64052;47.466;9.094;2023-02-23T20:03:28;95354.25;;;10.13;63.45
46456;BME280;64052;47.466;9.094;2023-02-23T20:08:30;95355.88;;;9.65;65.59
46456;BME280;64052;47.466;9.094;2023-02-23T20:13:32;95366.13;;;9.68;66.16
46456;BME280;64052;47.466;9.094;2023-02-23T20:18:35;95358.94;;;9.60;66.82
46456;BME280;64052;47.466;9.094;2023-02-23T20:23:37;95362.28;;;9.82;66.32
46456;BME280;64052;47.466;9.094;2023-02-23T20:28:39;95348.69;;;9.67;65.47
46456;BME280;64052;47.466;9.094;2023-02-23T20:33:41;95359.50;;;9.64;66.04
46456;BME280;64052;47.466;9.094;2023-02-23T20:38:43;95347.84;;;9.56;64.30
46456;BME280;64052;47.466;9.094;2023-02-23T20:43:44;95350.47;;;9.47;65.01
46456;BME280;64052;47.466;9.094;2023-02-23T20:48:46;95355.31;;;9.51;64.70
46456;BME280;64052;47.466;9.094;2023-02-23T20:53:47;95352.53;;;9.33;65.63
46456;BME280;64052;47.466;9.094;2023-02-23T20:58:49;95364.41;;;9.27;65.99
46456;BME280;64052;47.466;9.094;2023-02-23T21:03:52;95360.81;;;9.19;65.86
46456;BME280;64052;47.466;9.094;2023-02-23T21:08:54;95363.91;;;9.34;65.58
46456;BME280;64052;47.466;9.094;2023-02-23T21:13:58;95356.41;;;9.29;65.43
46456;BME280;64052;47.466;9.094;2023-02-23T21:18:59;95362.78;;;9.36;65.44
46456;BME280;64052;47.466;9.094;2023-02-23T21:24:01;95360.63;;;9.10;65.05
46456;BME280;64052;47.466;9.094;2023-02-23T21:29:03;95350.78;;;9.03;64.99
46456;BME280;64052;47.466;9.094;2023-02-23T21:34:05;95355.75;;;8.96;65.93
46456;BME280;64052;47.466;9.094;2023-02-23T21:39:07;95352.59;;;8.71;67.01
46456;BME280;64052;47.466;9.094;2023-02-23T21:44:10;95350.06;;;8.91;66.49
46456;BME280;64052;47.466;9.094;2023-02-23T21:49:12;95352.16;;;8.97;66.29
46456;BME280;64052;47.466;9.094;2023-02-23T21:54:13;95356.19;;;8.70;65.84
46456;BME280;64052;47.466;9.094;2023-02-23T21:59:15;95341.75;;;8.54;64.67
46456;BME280;64052;47.466;9.094;2023-02-23T22:04:16;95336.97;;;8.48;65.15
46456;BME280;64052;47.466;9.094;2023-02-23T22:09:18;95334.19;;;8.40;66.43
46456;BME280;64052;47.466;9.094;2023-02-23T22:14:19;95324.44;;;8.30;67.22
46456;BME280;64052;47.466;9.094;2023-02-23T22:19:21;95323.50;;;8.32;66.55
46456;BME280;64052;47.466;9.094;2023-02-23T22:24:22;95316.03;;;8.37;66.44
46456;BME280;64052;47.466;9.094;2023-02-23T22:29:25;95314.69;;;8.42;66.87
46456;BME280;64052;47.466;9.094;2023-02-23T22:34:26;95319.06;;;8.53;65.95
46456;BME280;64052;47.466;9.094;2023-02-23T22:39:28;95304.91;;;8.23;66.72
46456;BME280;64052;47.466;9.094;2023-02-23T22:44:29;95299.38;;;8.26;65.74
46456;BME280;64052;47.466;9.094;2023-02-23T22:49:31;95290.66;;;8.16;66.53
46456;BME280;64052;47.466;9.094;2023-02-23T22:54:33;95292.22;;;8.07;66.89
46456;BME280;64052;47.466;9.094;2023-02-23T22:59:34;95296.53;;;8.08;67.20
46456;BME280;64052;47.466;9.094;2023-02-23T23:04:36;95291.47;;;8.16;68.00
46456;BME280;64052;47.466;9.094;2023-02-23T23:09:38;95290.31;;;8.30;66.77
46456;BME280;64052;47.466;9.094;2023-02-23T23:14:39;95296.66;;;8.28;66.78
46456;BME280;64052;47.466;9.094;2023-02-23T23:19:41;95284.50;;;8.06;67.89
46456;BME280;64052;47.466;9.094;2023-02-23T23:24:42;95279.91;;;7.98;67.56
46456;BME280;64052;47.466;9.094;2023-02-23T23:29:47;95273.94;;;8.17;66.95
46456;BME280;64052;47.466;9.094;2023-02-23T23:34:49;95268.06;;;8.35;66.49
46456;BME280;64052;47.466;9.094;2023-02-23T23:39:50;95262.03;;;7.92;65.97
46456;BME280;64052;47.466;9.094;2023-02-23T23:44:52;95262.03;;;7.92;67.00
46456;BME280;64052;47.466;9.094;2023-02-23T23:49:53;95255.56;;;7.96;66.93
46456;BME280;64052;47.466;9.094;2023-02-23T23:54:55;95256.31;;;8.08;66.80
46456;BME280;64052;47.466;9.094;2023-02-23T23:59:57;95249.84;;;8.12;65.08
